6 de octubre de 2022

Hora Código Tiempo Temp. Visibilidad Cielo nuboso Viento METAR/SPECI
12:00
V
11 °C 9 mi - 130° 130° 5 kt METAR CYBW 061800Z AUTO 13005KT 100V190 9SM CLR 11/03 A3044 RMK SLP333
11:00
V
7 °C 9 mi - 210° 210° 3 kt METAR CYBW 061700Z AUTO 21003KT 150V240 9SM CLR 07/03 A3045 RMK SLP340
10:00
V
4 °C 9 mi - Var 000° 0 kt METAR CYBW 061600Z AUTO 00000KT 9SM CLR 04/03 A3045 RMK SLP345
09:00
V
1 °C 9 mi - 300° 300° 2 kt METAR CYBW 061500Z AUTO 30002KT 9SM CLR 01/01 A3045 RMK SLP350
08:26
V
0 °C 9 mi - 230° 230° 2 kt METAR CYBW 061426Z AUTO 23002KT 9SM SCT002 M00/M00 A3045 RMK SLP348
08:23
L
0 °C 8 mi 200 ft 250° 250° 2 kt METAR CYBW 061423Z AUTO 25002KT 8SM R35/3000FT/N BKN002 M00/M00 A3045 RMK SLP364
08:19
L
0 °C ¾ mi 200 ft 260° 260° 2 kt METAR CYBW 061419Z AUTO 26002KT 3/4SM R35/2800VP6000FT/ BR BKN002 M00/M00 A3045 RMK SLP365
08:00
L
-1 °C 0 mi 200 ft 260° 260° 2 kt METAR CYBW 061400Z AUTO 26002KT 0SM R35/2000FT/N FZFG VV002 M01/M01 A3045 RMK SLP347
07:47
L
-1 °C 0 mi 200 ft 260° 260° 2 kt METAR CYBW 061347Z AUTO 26002KT 0SM R35/1400V2600FT FZFG VV002 M01/M01 A3045 RMK SLP368
07:33
L
-2 °C ¼ mi 300 ft 250° 250° 3 kt METAR CYBW 061333Z AUTO 25003KT 1/4SM R35/1600FT/N FZFG BKN003 M02/M02 A3044 RMK SLP369
07:10
L
0 °C ⅜ mi - Var 000° 0 kt METAR CYBW 061310Z AUTO 00000KT 3/8SM R35/2800VP6000FT FZFG CLR M00/M00 A3044 RMK SLP363
07:06
L
0 °C ⅜ mi - Var 000° 0 kt METAR CYBW 061306Z AUTO 00000KT 3/8SM R35/2800V5000FT FG CLR 00/00 A3045 RMK SLP363
06:56
L
-1 °C ⅜ mi - 160° 160° 2 kt METAR CYBW 061256Z AUTO 16002KT 3/8SM R35/2800VP6000FT FZFG CLR M01/M01 A3045 RMK SLP367
06:34
L
0 °C ⅜ mi - 180° 180° 2 kt METAR CYBW 061234Z AUTO 18002KT 3/8SM R35/2600V6000FT/ FZFG CLR M00/M00 A3045 RMK SLP365
06:29
L
0 °C ½ mi - 180° 180° 2 kt METAR CYBW 061229Z AUTO 18002KT 1/2SM R35/2600VP6000FT/ FZFG CLR M00/M00 A3045 RMK SLP364
06:19
I
-1 °C 2½ mi - Var 000° 0 kt METAR CYBW 061219Z AUTO 00000KT 2 1/2SM R35/3000V4500FT/ BR CLR M01/M01 A3045 RMK SLP367
06:13
I
-1 °C 3 mi - Var 000° 0 kt METAR CYBW 061213Z AUTO 00000KT 3SM BR CLR M01/M01 A3045 RMK SLP368
06:02
I
-1 °C 2½ mi - 180° 180° 4 kt METAR CYBW 061202Z AUTO 18004KT 2 1/2SM BR CLR M01/M01 A3045 RMK SLP367
06:00
V
0 °C 7 mi - 180° 180° 4 kt METAR CYBW 061200Z AUTO 18004KT 7SM CLR 00/00 A3045 RMK SLP338
05:00
V
0 °C 9 mi - 210° 210° 4 kt METAR CYBW 061100Z AUTO 21004KT 9SM CLR 00/M00 A3045 RMK SLP339
04:00
V
2 °C 9 mi - 170° 170° 5 kt METAR CYBW 061000Z AUTO 17005KT 9SM CLR 02/01 A3045 RMK SLP336
03:00
V
4 °C 9 mi - 130° 130° 7 kt METAR CYBW 060900Z AUTO 13007KT 9SM SCT120 04/02 A3045 RMK SLP333
02:00
V
5 °C 9 mi 12.000 ft 160° 160° 7 kt METAR CYBW 060800Z AUTO 16007KT 9SM OVC120 05/03 A3045 RMK SLP331
01:00
V
5 °C 9 mi 13.000 ft 170° 170° 7 kt METAR CYBW 060700Z AUTO 17007KT 9SM OVC130 05/02 A3046 RMK SLP338
00:00
V
7 °C 9 mi 6.000 ft 140° 140° 9 kt METAR CYBW 060600Z AUTO 14009KT 9SM OVC060 07/02 A3047 RMK SLP339

5 de octubre de 2022

Hora Código Tiempo Temp. Visibilidad Cielo nuboso Viento METAR/SPECI
23:00
V
7 °C 9 mi 5.500 ft 090° 090° 9 kt METAR CYBW 060500Z AUTO 09009KT 9SM OVC055 07/02 A3047 RMK SLP340
22:00
V
8 °C 9 mi 6.000 ft 090° 090° 8 kt METAR CYBW 060400Z AUTO 09008KT 9SM BKN060 OVC120 08/02 A3045 RMK SLP338
21:00
V
9 °C 9 mi 12.000 ft 110° 110° 10 - 15 kt METAR CYBW 060300Z AUTO 11010G15KT 9SM SCT091 OVC120 09/03 A3041 RMK PRESRR SLP328
20:48
V
9 °C 9 mi 10.000 ft 100° 100° 13 - 18 kt METAR CYBW 060248Z AUTO 10013G18KT 9SM FEW081 BKN100 OVC120 09/03 A3039 RMK SLP315
20:26
V
10 °C 9 mi 9.300 ft 090° 090° 12 - 20 kt METAR CYBW 060226Z AUTO 09012G20KT 9SM -RA FEW071 BKN093 OVC110 10/03 A3039 RMK PRESRR SLP311
20:00
V
11 °C 9 mi 12.000 ft 100° 100° 16 kt METAR CYBW 060200Z AUTO 10016KT 9SM SCT096 BKN120 OVC140 11/03 A3036 RMK SLP312
19:00
V
13 °C 9 mi 13.000 ft 100° 100° 9 kt METAR CYBW 060100Z AUTO 10009KT 9SM BKN130 13/03 A3033 RMK SLP298 DENSITY ALT 4200FT
18:00
V
16 °C 9 mi - 090° 090° 9 kt METAR CYBW 060000Z AUTO 09009KT 9SM CLR 16/03 A3030 RMK SLP284 DENSITY ALT 4500FT
17:00
V
17 °C 9 mi - 090° 090° 11 kt METAR CYBW 052300Z AUTO 09011KT 9SM CLR 17/03 A3028 RMK SLP272 DENSITY ALT 4700FT
16:00
V
17 °C 9 mi - 120° 120° 9 - 16 kt METAR CYBW 052200Z AUTO 12009G16KT 9SM CLR 17/04 A3027 RMK SLP266 DENSITY ALT 4700FT
15:00
V
17 °C 9 mi - 130° 130° 7 - 15 kt METAR CYBW 052100Z AUTO 13007G15KT 9SM CLR 17/04 A3026 RMK SLP258 DENSITY ALT 4700FT
14:00
V
16 °C 9 mi - 130° 130° 12 kt METAR CYBW 052000Z AUTO 13012KT 9SM CLR 16/04 A3025 RMK SLP259 DENSITY ALT 4700FT
13:00
V
14 °C 9 mi 17.000 ft 150° 150° 11 kt METAR CYBW 051900Z AUTO 15011KT 9SM BKN170 BKN190 14/04 A3024 RMK SLP258 DENSITY ALT 4400FT
12:00
V
14 °C 9 mi 22.000 ft 160° 160° 6 kt METAR CYBW 051800Z AUTO 16006KT 9SM BKN220 OVC240 14/03 A3025 RMK SLP257 DENSITY ALT 4400FT
11:00
V
12 °C 9 mi - 120° 120° 6 kt METAR CYBW 051700Z AUTO 12006KT 080V170 9SM CLR 12/04 A3024 RMK SLP259 DENSITY ALT 4200FT
10:00
V
8 °C 9 mi - Var Var 2 kt METAR CYBW 051600Z AUTO VRB02KT 9SM CLR 08/03 A3024 RMK SLP263
09:00
V
5 °C 8 mi - 330° 330° 3 kt METAR CYBW 051500Z AUTO 33003KT 8SM CLR 05/03 A3023 RMK SLP264
08:00
V
3 °C 9 mi - Var Var 2 kt METAR CYBW 051400Z AUTO VRB02KT 9SM CLR 03/01 A3022 RMK SLP259
07:00
V
3 °C 9 mi - Var Var 2 kt METAR CYBW 051300Z AUTO VRB02KT 9SM CLR 03/02 A3022 RMK SLP255
06:00
V
3 °C 9 mi - 340° 340° 3 kt METAR CYBW 051200Z AUTO 34003KT 220V340 9SM CLR 03/02 A3022 RMK SLP246
05:00
V
4 °C 9 mi - 180° 180° 6 kt METAR CYBW 051100Z AUTO 18006KT 9SM CLR 04/01 A3021 RMK SLP240
04:00
V
5 °C 9 mi - 050° 050° 3 kt METAR CYBW 051000Z AUTO 05003KT 320V070 9SM CLR 05/04 A3022 RMK SLP242
03:00
V
8 °C 9 mi 21.000 ft 090° 090° 4 kt METAR CYBW 050900Z AUTO 09004KT 9SM SCT190 BKN210 08/03 A3022 RMK SLP237
02:00
V
7 °C 9 mi 21.000 ft 040° 040° 3 kt METAR CYBW 050800Z AUTO 04003KT 300V060 9SM BKN210 OVC240 07/04 A3023 RMK SLP242
01:00
V
8 °C 9 mi 22.000 ft 340° 340° 3 kt METAR CYBW 050700Z AUTO 34003KT 9SM BKN220 OVC240 08/05 A3023 RMK SLP242
00:00
V
9 °C 9 mi - Var Var 2 kt METAR CYBW 050600Z AUTO VRB02KT 9SM CLR 09/04 A3022 RMK SLP239

4 de octubre de 2022

Hora Código Tiempo Temp. Visibilidad Cielo nuboso Viento METAR/SPECI
23:00
V
9 °C 9 mi - Var Var 2 kt METAR CYBW 050500Z AUTO VRB02KT 9SM CLR 09/05 A3020 RMK SLP236
22:00
V
11 °C 9 mi - Var 000° 0 kt METAR CYBW 050400Z AUTO 00000KT 9SM CLR 11/06 A3019 RMK SLP235 DENSITY ALT 4100FT
21:00
V
11 °C 9 mi - 110° 110° 7 kt METAR CYBW 050300Z AUTO 11007KT 9SM CLR 11/05 A3017 RMK SLP233 DENSITY ALT 4200FT
20:00
V
13 °C 9 mi - 100° 100° 9 kt METAR CYBW 050200Z AUTO 10009KT 9SM CLR 13/05 A3015 RMK SLP230 DENSITY ALT 4400FT
19:00
V
16 °C 9 mi - 100° 100° 9 kt METAR CYBW 050100Z AUTO 10009KT 9SM CLR 16/06 A3013 RMK SLP219 DENSITY ALT 4800FT
18:00
V
20 °C 9 mi - 100° 100° 10 kt METAR CYBW 050000Z AUTO 10010KT 9SM CLR 20/06 A3012 RMK SLP209 DENSITY ALT 5300FT
17:00
V
22 °C 9 mi - 090° 090° 9 kt METAR CYBW 042300Z AUTO 09009KT 9SM CLR 22/06 A3012 RMK SLP206 DENSITY ALT 5500FT
16:00
V
23 °C 9 mi - 090° 090° 6 kt METAR CYBW 042200Z AUTO 09006KT 360V130 9SM CLR 23/06 A3012 RMK SLP206 DENSITY ALT 5500FT
15:00
V
23 °C 9 mi - 140° 140° 5 kt METAR CYBW 042100Z AUTO 14005KT 100V210 9SM CLR 23/06 A3013 RMK SLP207 DENSITY ALT 5600FT
14:00
V
22 °C 9 mi - 360° 360° 5 kt METAR CYBW 042000Z AUTO 36005KT 320V100 9SM CLR 22/07 A3014 RMK SLP211 DENSITY ALT 5500FT
13:00
V
21 °C 9 mi - 330° 330° 4 kt METAR CYBW 041900Z AUTO 33004KT 250V030 9SM CLR 21/07 A3014 RMK SLP214 DENSITY ALT 5400FT
12:00
V
20 °C 9 mi - 330° 330° 8 kt METAR CYBW 041800Z AUTO 33008KT 9SM CLR 20/07 A3015 RMK SLP217 DENSITY ALT 5200FT
11:00
V
18 °C 9 mi - 320° 320° 9 kt METAR CYBW 041700Z AUTO 32009KT 9SM CLR 18/06 A3015 RMK SLP221 DENSITY ALT 4900FT
10:00
V
14 °C 9 mi - 320° 320° 9 kt METAR CYBW 041600Z AUTO 32009KT 9SM CLR 14/06 A3015 RMK SLP221 DENSITY ALT 4500FT
09:00
V
9 °C 9 mi - 320° 320° 7 kt METAR CYBW 041500Z AUTO 32007KT 9SM CLR 09/05 A3014 RMK SLP219 DENSITY ALT 4000FT
Datos más antiguos

Nosotros y terceros seguimos tu comportamiento en Internet en nuestro sitio web con cookies. Si continúas, asumimos que estás de acuerdo con nuestra política de cookies. Más información